sensor_id;sensor_type;location;lat;lon;timestamp;P1;durP1;ratioP1;P2;durP2;ratioP2
21046;SDS011;10682;50.874;3.656;2023-05-27T00:01:20;23.17;;;5.77;;
21046;SDS011;10682;50.874;3.656;2023-05-27T00:03:47;23.27;;;5.80;;
21046;SDS011;10682;50.874;3.656;2023-05-27T00:06:15;21.90;;;5.30;;
21046;SDS011;10682;50.874;3.656;2023-05-27T00:08:42;22.57;;;5.63;;
21046;SDS011;10682;50.874;3.656;2023-05-27T00:11:10;28.30;;;5.90;;
21046;SDS011;10682;50.874;3.656;2023-05-27T00:13:37;23.53;;;5.80;;
21046;SDS011;10682;50.874;3.656;2023-05-27T00:16:05;20.53;;;5.60;;
21046;SDS011;10682;50.874;3.656;2023-05-27T00:18:33;21.77;;;5.90;;
21046;SDS011;10682;50.874;3.656;2023-05-27T00:21:04;23.77;;;5.50;;
21046;SDS011;10682;50.874;3.656;2023-05-27T00:23:31;22.87;;;5.40;;
21046;SDS011;10682;50.874;3.656;2023-05-27T00:25:59;28.20;;;5.67;;
21046;SDS011;10682;50.874;3.656;2023-05-27T00:28:26;20.17;;;5.27;;
21046;SDS011;10682;50.874;3.656;2023-05-27T00:30:58;20.20;;;5.43;;
21046;SDS011;10682;50.874;3.656;2023-05-27T00:33:38;21.80;;;5.50;;
21046;SDS011;10682;50.874;3.656;2023-05-27T00:36:10;27.47;;;5.77;;
21046;SDS011;10682;50.874;3.656;2023-05-27T00:38:39;23.20;;;5.60;;
21046;SDS011;10682;50.874;3.656;2023-05-27T00:41:12;22.93;;;5.77;;
21046;SDS011;10682;50.874;3.656;2023-05-27T00:43:40;19.57;;;5.40;;
21046;SDS011;10682;50.874;3.656;2023-05-27T00:46:07;23.80;;;5.20;;
21046;SDS011;10682;50.874;3.656;2023-05-27T00:48:34;30.20;;;5.50;;
21046;SDS011;10682;50.874;3.656;2023-05-27T00:51:01;25.57;;;4.97;;
21046;SDS011;10682;50.874;3.656;2023-05-27T00:53:30;23.17;;;5.10;;
21046;SDS011;10682;50.874;3.656;2023-05-27T00:56:07;30.67;;;5.77;;
21046;SDS011;10682;50.874;3.656;2023-05-27T00:58:36;26.13;;;5.67;;
21046;SDS011;10682;50.874;3.656;2023-05-27T01:01:03;22.33;;;4.97;;
21046;SDS011;10682;50.874;3.656;2023-05-27T01:03:34;20.27;;;4.93;;
21046;SDS011;10682;50.874;3.656;2023-05-27T01:09:13;23.37;;;5.40;;
21046;SDS011;10682;50.874;3.656;2023-05-27T01:12:08;20.00;;;4.67;;
21046;SDS011;10682;50.874;3.656;2023-05-27T01:14:55;20.80;;;5.23;;
21046;SDS011;10682;50.874;3.656;2023-05-27T01:17:26;20.73;;;4.83;;
21046;SDS011;10682;50.874;3.656;2023-05-27T01:19:58;18.70;;;4.43;;
21046;SDS011;10682;50.874;3.656;2023-05-27T01:22:27;24.97;;;5.37;;
21046;SDS011;10682;50.874;3.656;2023-05-27T01:24:56;30.03;;;6.00;;
21046;SDS011;10682;50.874;3.656;2023-05-27T01:27:25;18.90;;;5.07;;
21046;SDS011;10682;50.874;3.656;2023-05-27T01:29:58;21.87;;;4.70;;
21046;SDS011;10682;50.874;3.656;2023-05-27T01:38:09;26.00;;;5.80;;
21046;SDS011;10682;50.874;3.656;2023-05-27T01:40:40;26.33;;;5.10;;
21046;SDS011;10682;50.874;3.656;2023-05-27T01:43:08;23.07;;;5.53;;
21046;SDS011;10682;50.874;3.656;2023-05-27T01:45:42;24.33;;;5.23;;
21046;SDS011;10682;50.874;3.656;2023-05-27T01:48:12;24.27;;;5.87;;
21046;SDS011;10682;50.874;3.656;2023-05-27T01:50:44;19.77;;;5.33;;
21046;SDS011;10682;50.874;3.656;2023-05-27T01:53:19;20.27;;;5.20;;
21046;SDS011;10682;50.874;3.656;2023-05-27T01:55:47;20.40;;;4.90;;
21046;SDS011;10682;50.874;3.656;2023-05-27T01:58:22;18.37;;;5.67;;
21046;SDS011;10682;50.874;3.656;2023-05-27T02:00:49;19.30;;;4.70;;
21046;SDS011;10682;50.874;3.656;2023-05-27T02:03:20;21.97;;;5.77;;
21046;SDS011;10682;50.874;3.656;2023-05-27T02:05:50;19.63;;;5.03;;
21046;SDS011;10682;50.874;3.656;2023-05-27T02:08:17;28.77;;;5.40;;
21046;SDS011;10682;50.874;3.656;2023-05-27T02:10:45;22.07;;;5.33;;
21046;SDS011;10682;50.874;3.656;2023-05-27T02:13:15;20.53;;;5.20;;
21046;SDS011;10682;50.874;3.656;2023-05-27T02:15:42;25.07;;;5.53;;
21046;SDS011;10682;50.874;3.656;2023-05-27T02:18:12;24.20;;;5.27;;
21046;SDS011;10682;50.874;3.656;2023-05-27T02:20:47;18.33;;;4.80;;
21046;SDS011;10682;50.874;3.656;2023-05-27T02:23:14;24.63;;;5.17;;
21046;SDS011;10682;50.874;3.656;2023-05-27T02:25:47;28.77;;;6.07;;
21046;SDS011;10682;50.874;3.656;2023-05-27T02:28:15;19.07;;;5.07;;
21046;SDS011;10682;50.874;3.656;2023-05-27T02:30:46;25.73;;;5.90;;
21046;SDS011;10682;50.874;3.656;2023-05-27T02:33:13;26.60;;;5.97;;
21046;SDS011;10682;50.874;3.656;2023-05-27T02:35:44;24.90;;;5.03;;
21046;SDS011;10682;50.874;3.656;2023-05-27T02:38:22;20.10;;;5.60;;
21046;SDS011;10682;50.874;3.656;2023-05-27T02:40:52;19.50;;;4.93;;
21046;SDS011;10682;50.874;3.656;2023-05-27T02:43:19;16.70;;;5.27;;
21046;SDS011;10682;50.874;3.656;2023-05-27T02:45:47;24.37;;;5.03;;
21046;SDS011;10682;50.874;3.656;2023-05-27T02:48:14;19.30;;;5.20;;
21046;SDS011;10682;50.874;3.656;2023-05-27T02:50:44;26.40;;;5.37;;
21046;SDS011;10682;50.874;3.656;2023-05-27T02:53:11;23.97;;;4.93;;
21046;SDS011;10682;50.874;3.656;2023-05-27T02:55:42;24.23;;;5.17;;
21046;SDS011;10682;50.874;3.656;2023-05-27T02:58:09;17.83;;;5.03;;
21046;SDS011;10682;50.874;3.656;2023-05-27T03:00:36;21.80;;;5.53;;
21046;SDS011;10682;50.874;3.656;2023-05-27T03:03:03;23.97;;;5.90;;
21046;SDS011;10682;50.874;3.656;2023-05-27T03:05:34;24.47;;;5.87;;
21046;SDS011;10682;50.874;3.656;2023-05-27T03:08:02;27.90;;;5.53;;
21046;SDS011;10682;50.874;3.656;2023-05-27T03:10:32;19.77;;;5.70;;
21046;SDS011;10682;50.874;3.656;2023-05-27T03:13:00;23.83;;;5.23;;
21046;SDS011;10682;50.874;3.656;2023-05-27T03:15:27;23.80;;;5.73;;
21046;SDS011;10682;50.874;3.656;2023-05-27T03:17:57;22.90;;;5.33;;
21046;SDS011;10682;50.874;3.656;2023-05-27T03:20:24;25.37;;;5.13;;
21046;SDS011;10682;50.874;3.656;2023-05-27T03:22:52;27.33;;;5.57;;
21046;SDS011;10682;50.874;3.656;2023-05-27T03:25:23;22.33;;;5.33;;
21046;SDS011;10682;50.874;3.656;2023-05-27T03:27:50;26.33;;;5.20;;
21046;SDS011;10682;50.874;3.656;2023-05-27T03:30:19;24.10;;;5.57;;
21046;SDS011;10682;50.874;3.656;2023-05-27T03:32:46;28.10;;;6.50;;
21046;SDS011;10682;50.874;3.656;2023-05-27T03:35:13;22.77;;;5.50;;
21046;SDS011;10682;50.874;3.656;2023-05-27T03:37:40;22.90;;;5.27;;
21046;SDS011;10682;50.874;3.656;2023-05-27T03:40:07;26.80;;;6.00;;
21046;SDS011;10682;50.874;3.656;2023-05-27T03:42:35;20.90;;;5.67;;
21046;SDS011;10682;50.874;3.656;2023-05-27T03:45:02;21.27;;;5.30;;
21046;SDS011;10682;50.874;3.656;2023-05-27T03:47:29;18.17;;;5.17;;
21046;SDS011;10682;50.874;3.656;2023-05-27T03:49:56;30.07;;;6.03;;
21046;SDS011;10682;50.874;3.656;2023-05-27T03:52:23;18.77;;;5.23;;
21046;SDS011;10682;50.874;3.656;2023-05-27T03:54:50;25.23;;;5.47;;
21046;SDS011;10682;50.874;3.656;2023-05-27T03:57:17;17.50;;;5.13;;
21046;SDS011;10682;50.874;3.656;2023-05-27T03:59:44;23.17;;;5.27;;
21046;SDS011;10682;50.874;3.656;2023-05-27T04:02:11;20.37;;;5.77;;
21046;SDS011;10682;50.874;3.656;2023-05-27T04:04:38;23.63;;;6.17;;
21046;SDS011;10682;50.874;3.656;2023-05-27T04:07:06;15.80;;;4.77;;
21046;SDS011;10682;50.874;3.656;2023-05-27T04:09:33;21.63;;;5.57;;
21046;SDS011;10682;50.874;3.656;2023-05-27T04:12:03;26.87;;;5.70;;
21046;SDS011;10682;50.874;3.656;2023-05-27T04:14:32;21.13;;;5.47;;
21046;SDS011;10682;50.874;3.656;2023-05-27T04:17:07;25.40;;;5.20;;
21046;SDS011;10682;50.874;3.656;2023-05-27T04:19:34;23.17;;;5.53;;
21046;SDS011;10682;50.874;3.656;2023-05-27T04:22:04;25.10;;;5.23;;
21046;SDS011;10682;50.874;3.656;2023-05-27T04:24:31;28.90;;;5.77;;
21046;SDS011;10682;50.874;3.656;2023-05-27T04:26:58;22.37;;;5.43;;
21046;SDS011;10682;50.874;3.656;2023-05-27T04:29:25;18.40;;;5.47;;
21046;SDS011;10682;50.874;3.656;2023-05-27T04:31:53;22.70;;;5.83;;
21046;SDS011;10682;50.874;3.656;2023-05-27T04:34:22;21.47;;;5.83;;
21046;SDS011;10682;50.874;3.656;2023-05-27T04:36:50;22.47;;;5.77;;
21046;SDS011;10682;50.874;3.656;2023-05-27T04:39:17;23.30;;;6.13;;
21046;SDS011;10682;50.874;3.656;2023-05-27T04:41:45;22.13;;;5.80;;
21046;SDS011;10682;50.874;3.656;2023-05-27T04:44:12;25.47;;;5.20;;
21046;SDS011;10682;50.874;3.656;2023-05-27T04:46:39;23.30;;;5.60;;
21046;SDS011;10682;50.874;3.656;2023-05-27T04:49:10;26.23;;;6.53;;
21046;SDS011;10682;50.874;3.656;2023-05-27T04:51:37;19.03;;;5.43;;
21046;SDS011;10682;50.874;3.656;2023-05-27T04:54:04;27.23;;;6.77;;
21046;SDS011;10682;50.874;3.656;2023-05-27T04:56:32;19.80;;;6.10;;
21046;SDS011;10682;50.874;3.656;2023-05-27T04:58:59;21.40;;;5.77;;
21046;SDS011;10682;50.874;3.656;2023-05-27T05:01:26;21.57;;;5.80;;
21046;SDS011;10682;50.874;3.656;2023-05-27T05:03:55;22.20;;;5.93;;
21046;SDS011;10682;50.874;3.656;2023-05-27T05:06:39;20.20;;;5.23;;
21046;SDS011;10682;50.874;3.656;2023-05-27T05:09:07;27.13;;;5.97;;
21046;SDS011;10682;50.874;3.656;2023-05-27T05:11:35;28.47;;;5.53;;
21046;SDS011;10682;50.874;3.656;2023-05-27T05:14:02;17.03;;;5.27;;
21046;SDS011;10682;50.874;3.656;2023-05-27T05:16:29;28.63;;;6.40;;
21046;SDS011;10682;50.874;3.656;2023-05-27T05:18:59;25.77;;;6.00;;
21046;SDS011;10682;50.874;3.656;2023-05-27T05:21:29;22.23;;;6.07;;
21046;SDS011;10682;50.874;3.656;2023-05-27T05:23:57;23.30;;;6.27;;
21046;SDS011;10682;50.874;3.656;2023-05-27T05:26:23;25.53;;;6.57;;
21046;SDS011;10682;50.874;3.656;2023-05-27T05:28:52;26.70;;;5.63;;
21046;SDS011;10682;50.874;3.656;2023-05-27T05:31:18;25.90;;;6.37;;
21046;SDS011;10682;50.874;3.656;2023-05-27T05:33:46;26.57;;;6.80;;
21046;SDS011;10682;50.874;3.656;2023-05-27T05:36:13;23.57;;;6.20;;
21046;SDS011;10682;50.874;3.656;2023-05-27T05:38:39;25.30;;;6.10;;
21046;SDS011;10682;50.874;3.656;2023-05-27T05:41:06;24.93;;;5.93;;
21046;SDS011;10682;50.874;3.656;2023-05-27T05:43:33;26.63;;;6.30;;
21046;SDS011;10682;50.874;3.656;2023-05-27T05:46:00;24.73;;;6.77;;
21046;SDS011;10682;50.874;3.656;2023-05-27T05:48:28;26.70;;;6.70;;
21046;SDS011;10682;50.874;3.656;2023-05-27T05:50:55;29.47;;;6.87;;
21046;SDS011;10682;50.874;3.656;2023-05-27T05:53:25;21.23;;;6.37;;
21046;SDS011;10682;50.874;3.656;2023-05-27T05:55:52;22.03;;;6.13;;
21046;SDS011;10682;50.874;3.656;2023-05-27T05:58:19;21.33;;;6.50;;
21046;SDS011;10682;50.874;3.656;2023-05-27T06:00:47;20.60;;;6.80;;
21046;SDS011;10682;50.874;3.656;2023-05-27T06:03:14;26.10;;;6.73;;
21046;SDS011;10682;50.874;3.656;2023-05-27T06:05:41;23.77;;;6.37;;
21046;SDS011;10682;50.874;3.656;2023-05-27T06:08:08;24.03;;;6.50;;
21046;SDS011;10682;50.874;3.656;2023-05-27T06:10:35;21.90;;;6.97;;
21046;SDS011;10682;50.874;3.656;2023-05-27T06:13:03;21.33;;;6.17;;
21046;SDS011;10682;50.874;3.656;2023-05-27T06:15:31;21.37;;;6.87;;
21046;SDS011;10682;50.874;3.656;2023-05-27T06:17:58;26.87;;;6.30;;
21046;SDS011;10682;50.874;3.656;2023-05-27T06:20:26;29.93;;;6.97;;
21046;SDS011;10682;50.874;3.656;2023-05-27T06:22:53;25.33;;;7.27;;
21046;SDS011;10682;50.874;3.656;2023-05-27T06:25:20;21.27;;;6.47;;
21046;SDS011;10682;50.874;3.656;2023-05-27T06:27:47;29.47;;;6.90;;
21046;SDS011;10682;50.874;3.656;2023-05-27T06:30:14;18.27;;;6.43;;
21046;SDS011;10682;50.874;3.656;2023-05-27T06:32:41;23.90;;;6.23;;
21046;SDS011;10682;50.874;3.656;2023-05-27T06:35:08;23.57;;;6.27;;
21046;SDS011;10682;50.874;3.656;2023-05-27T06:37:35;23.53;;;6.87;;
21046;SDS011;10682;50.874;3.656;2023-05-27T06:40:02;26.40;;;7.50;;
21046;SDS011;10682;50.874;3.656;2023-05-27T06:42:30;29.50;;;6.80;;
21046;SDS011;10682;50.874;3.656;2023-05-27T06:44:57;23.60;;;7.10;;
21046;SDS011;10682;50.874;3.656;2023-05-27T06:47:24;23.90;;;7.13;;
21046;SDS011;10682;50.874;3.656;2023-05-27T06:49:51;25.90;;;6.40;;
21046;SDS011;10682;50.874;3.656;2023-05-27T06:52:18;28.30;;;6.17;;
21046;SDS011;10682;50.874;3.656;2023-05-27T06:54:46;30.27;;;6.90;;
21046;SDS011;10682;50.874;3.656;2023-05-27T06:57:13;21.27;;;6.47;;
21046;SDS011;10682;50.874;3.656;2023-05-27T06:59:40;24.33;;;6.60;;
21046;SDS011;10682;50.874;3.656;2023-05-27T07:02:08;24.98;;;6.53;;
21046;SDS011;10682;50.874;3.656;2023-05-27T07:04:35;25.25;;;6.57;;
21046;SDS011;10682;50.874;3.656;2023-05-27T07:07:02;23.73;;;6.82;;
21046;SDS011;10682;50.874;3.656;2023-05-27T07:09:29;19.88;;;6.10;;
21046;SDS011;10682;50.874;3.656;2023-05-27T07:11:56;20.33;;;6.13;;
21046;SDS011;10682;50.874;3.656;2023-05-27T07:14:23;28.33;;;6.95;;
21046;SDS011;10682;50.874;3.656;2023-05-27T07:16:51;25.17;;;6.10;;
21046;SDS011;10682;50.874;3.656;2023-05-27T07:19:18;22.63;;;6.07;;
21046;SDS011;10682;50.874;3.656;2023-05-27T07:21:45;22.83;;;6.13;;
21046;SDS011;10682;50.874;3.656;2023-05-27T07:24:12;20.10;;;6.15;;
21046;SDS011;10682;50.874;3.656;2023-05-27T07:26:39;24.60;;;6.47;;
21046;SDS011;10682;50.874;3.656;2023-05-27T07:29:06;17.27;;;6.07;;
21046;SDS011;10682;50.874;3.656;2023-05-27T07:31:33;22.58;;;6.30;;
21046;SDS011;10682;50.874;3.656;2023-05-27T07:34:00;21.75;;;6.68;;
21046;SDS011;10682;50.874;3.656;2023-05-27T07:36:27;16.45;;;6.00;;
21046;SDS011;10682;50.874;3.656;2023-05-27T07:38:55;24.52;;;6.25;;
21046;SDS011;10682;50.874;3.656;2023-05-27T07:41:22;30.35;;;7.13;;
21046;SDS011;10682;50.874;3.656;2023-05-27T07:43:50;31.33;;;7.05;;
21046;SDS011;10682;50.874;3.656;2023-05-27T07:46:16;21.73;;;6.13;;
21046;SDS011;10682;50.874;3.656;2023-05-27T07:48:44;23.48;;;6.88;;
21046;SDS011;10682;50.874;3.656;2023-05-27T07:51:11;22.70;;;5.88;;
21046;SDS011;10682;50.874;3.656;2023-05-27T07:53:38;20.88;;;6.03;;
21046;SDS011;10682;50.874;3.656;2023-05-27T07:56:05;18.35;;;5.78;;
21046;SDS011;10682;50.874;3.656;2023-05-27T07:58:32;20.73;;;6.43;;
21046;SDS011;10682;50.874;3.656;2023-05-27T08:00:59;19.63;;;6.00;;
21046;SDS011;10682;50.874;3.656;2023-05-27T08:03:26;25.33;;;6.65;;
21046;SDS011;10682;50.874;3.656;2023-05-27T08:05:53;18.13;;;6.13;;
21046;SDS011;10682;50.874;3.656;2023-05-27T08:08:20;23.63;;;6.13;;
21046;SDS011;10682;50.874;3.656;2023-05-27T08:10:50;21.50;;;6.45;;
21046;SDS011;10682;50.874;3.656;2023-05-27T08:13:18;24.25;;;6.57;;
21046;SDS011;10682;50.874;3.656;2023-05-27T08:15:45;17.98;;;5.93;;
21046;SDS011;10682;50.874;3.656;2023-05-27T08:18:14;17.02;;;5.47;;
21046;SDS011;10682;50.874;3.656;2023-05-27T08:20:42;20.13;;;5.93;;
21046;SDS011;10682;50.874;3.656;2023-05-27T08:23:09;22.30;;;5.95;;
21046;SDS011;10682;50.874;3.656;2023-05-27T08:25:36;25.17;;;5.93;;
21046;SDS011;10682;50.874;3.656;2023-05-27T08:28:03;24.85;;;6.10;;
21046;SDS011;10682;50.874;3.656;2023-05-27T08:30:30;20.88;;;5.88;;
21046;SDS011;10682;50.874;3.656;2023-05-27T08:32:58;21.52;;;5.70;;
21046;SDS011;10682;50.874;3.656;2023-05-27T08:35:26;20.02;;;5.75;;
21046;SDS011;10682;50.874;3.656;2023-05-27T08:37:53;24.17;;;6.22;;
21046;SDS011;10682;50.874;3.656;2023-05-27T08:40:20;26.33;;;6.40;;
21046;SDS011;10682;50.874;3.656;2023-05-27T08:42:47;22.05;;;5.82;;
21046;SDS011;10682;50.874;3.656;2023-05-27T08:45:15;19.55;;;6.15;;
21046;SDS011;10682;50.874;3.656;2023-05-27T08:47:42;23.23;;;6.25;;
21046;SDS011;10682;50.874;3.656;2023-05-27T08:50:09;20.65;;;5.68;;
21046;SDS011;10682;50.874;3.656;2023-05-27T08:52:38;18.35;;;5.50;;
21046;SDS011;10682;50.874;3.656;2023-05-27T08:55:17;18.13;;;5.65;;
21046;SDS011;10682;50.874;3.656;2023-05-27T08:57:51;20.15;;;5.72;;
21046;SDS011;10682;50.874;3.656;2023-05-27T09:00:25;24.55;;;6.05;;
21046;SDS011;10682;50.874;3.656;2023-05-27T09:02:53;15.80;;;5.35;;
21046;SDS011;10682;50.874;3.656;2023-05-27T09:05:25;18.17;;;5.15;;
21046;SDS011;10682;50.874;3.656;2023-05-27T09:07:54;19.50;;;5.50;;
21046;SDS011;10682;50.874;3.656;2023-05-27T09:10:22;18.83;;;5.90;;
21046;SDS011;10682;50.874;3.656;2023-05-27T09:12:49;21.23;;;6.00;;
21046;SDS011;10682;50.874;3.656;2023-05-27T09:15:17;20.52;;;5.95;;
21046;SDS011;10682;50.874;3.656;2023-05-27T09:17:44;20.55;;;5.88;;
21046;SDS011;10682;50.874;3.656;2023-05-27T09:20:12;19.42;;;5.18;;
21046;SDS011;10682;50.874;3.656;2023-05-27T09:22:40;21.35;;;5.97;;
21046;SDS011;10682;50.874;3.656;2023-05-27T09:25:07;25.98;;;6.20;;
21046;SDS011;10682;50.874;3.656;2023-05-27T09:27:37;21.02;;;5.80;;
21046;SDS011;10682;50.874;3.656;2023-05-27T09:30:07;22.15;;;6.10;;
21046;SDS011;10682;50.874;3.656;2023-05-27T09:32:35;27.23;;;6.25;;
21046;SDS011;10682;50.874;3.656;2023-05-27T09:35:05;27.05;;;5.43;;
21046;SDS011;10682;50.874;3.656;2023-05-27T09:37:34;19.05;;;5.43;;
21046;SDS011;10682;50.874;3.656;2023-05-27T09:40:05;21.67;;;5.60;;
21046;SDS011;10682;50.874;3.656;2023-05-27T09:42:41;18.67;;;5.78;;
21046;SDS011;10682;50.874;3.656;2023-05-27T09:45:13;22.98;;;5.78;;
21046;SDS011;10682;50.874;3.656;2023-05-27T09:47:50;22.02;;;5.75;;
21046;SDS011;10682;50.874;3.656;2023-05-27T09:50:19;20.70;;;5.70;;
21046;SDS011;10682;50.874;3.656;2023-05-27T09:52:47;25.83;;;6.22;;
21046;SDS011;10682;50.874;3.656;2023-05-27T09:55:35;20.10;;;5.22;;
21046;SDS011;10682;50.874;3.656;2023-05-27T09:58:02;21.20;;;5.90;;
21046;SDS011;10682;50.874;3.656;2023-05-27T10:00:29;20.38;;;5.72;;
21046;SDS011;10682;50.874;3.656;2023-05-27T10:02:59;20.25;;;5.90;;
21046;SDS011;10682;50.874;3.656;2023-05-27T10:05:27;21.92;;;5.50;;
21046;SDS011;10682;50.874;3.656;2023-05-27T10:07:56;19.83;;;5.88;;
21046;SDS011;10682;50.874;3.656;2023-05-27T10:10:38;23.40;;;5.80;;
21046;SDS011;10682;50.874;3.656;2023-05-27T10:13:06;25.42;;;6.07;;
21046;SDS011;10682;50.874;3.656;2023-05-27T10:15:34;18.40;;;6.25;;
21046;SDS011;10682;50.874;3.656;2023-05-27T10:18:05;21.73;;;5.55;;
21046;SDS011;10682;50.874;3.656;2023-05-27T10:20:41;22.40;;;6.00;;
21046;SDS011;10682;50.874;3.656;2023-05-27T10:23:09;19.17;;;5.80;;
21046;SDS011;10682;50.874;3.656;2023-05-27T10:25:46;17.75;;;5.93;;
21046;SDS011;10682;50.874;3.656;2023-05-27T10:28:27;22.10;;;5.55;;
21046;SDS011;10682;50.874;3.656;2023-05-27T10:31:08;23.48;;;5.75;;
21046;SDS011;10682;50.874;3.656;2023-05-27T10:33:52;23.58;;;5.78;;
21046;SDS011;10682;50.874;3.656;2023-05-27T10:36:23;19.75;;;5.47;;
21046;SDS011;10682;50.874;3.656;2023-05-27T10:38:58;22.17;;;5.97;;
21046;SDS011;10682;50.874;3.656;2023-05-27T10:41:38;19.73;;;5.50;;
21046;SDS011;10682;50.874;3.656;2023-05-27T10:44:07;20.50;;;6.05;;
21046;SDS011;10682;50.874;3.656;2023-05-27T10:46:38;18.92;;;6.18;;
21046;SDS011;10682;50.874;3.656;2023-05-27T10:49:09;25.38;;;6.97;;
21046;SDS011;10682;50.874;3.656;2023-05-27T10:51:47;24.08;;;5.88;;
21046;SDS011;10682;50.874;3.656;2023-05-27T10:54:15;23.35;;;5.22;;
21046;SDS011;10682;50.874;3.656;2023-05-27T10:56:54;20.00;;;5.80;;
21046;SDS011;10682;50.874;3.656;2023-05-27T10:59:22;18.33;;;5.68;;
21046;SDS011;10682;50.874;3.656;2023-05-27T11:01:52;19.83;;;5.57;;
21046;SDS011;10682;50.874;3.656;2023-05-27T11:04:20;25.90;;;6.45;;
21046;SDS011;10682;50.874;3.656;2023-05-27T11:06:58;23.05;;;5.90;;
21046;SDS011;10682;50.874;3.656;2023-05-27T11:09:30;17.80;;;5.65;;
21046;SDS011;10682;50.874;3.656;2023-05-27T11:12:08;20.67;;;5.70;;
21046;SDS011;10682;50.874;3.656;2023-05-27T11:14:43;23.90;;;6.78;;
21046;SDS011;10682;50.874;3.656;2023-05-27T11:17:20;21.58;;;6.35;;
21046;SDS011;10682;50.874;3.656;2023-05-27T11:19:50;31.05;;;6.38;;
21046;SDS011;10682;50.874;3.656;2023-05-27T11:22:17;23.15;;;5.82;;
21046;SDS011;10682;50.874;3.656;2023-05-27T11:24:55;20.73;;;6.20;;
21046;SDS011;10682;50.874;3.656;2023-05-27T11:27:36;18.48;;;5.25;;
21046;SDS011;10682;50.874;3.656;2023-05-27T11:30:09;18.00;;;5.78;;
21046;SDS011;10682;50.874;3.656;2023-05-27T11:32:41;16.38;;;5.22;;
21046;SDS011;10682;50.874;3.656;2023-05-27T11:35:13;19.52;;;5.25;;
21046;SDS011;10682;50.874;3.656;2023-05-27T11:37:45;24.77;;;6.20;;
21046;SDS011;10682;50.874;3.656;2023-05-27T11:40:19;19.40;;;5.22;;
21046;SDS011;10682;50.874;3.656;2023-05-27T11:42:46;23.70;;;5.68;;
21046;SDS011;10682;50.874;3.656;2023-05-27T11:45:17;19.70;;;5.88;;
21046;SDS011;10682;50.874;3.656;2023-05-27T11:47:46;22.42;;;5.32;;
21046;SDS011;10682;50.874;3.656;2023-05-27T11:50:17;24.38;;;6.20;;
21046;SDS011;10682;50.874;3.656;2023-05-27T11:52:49;18.08;;;5.07;;
21046;SDS011;10682;50.874;3.656;2023-05-27T11:55:22;16.25;;;5.03;;
21046;SDS011;10682;50.874;3.656;2023-05-27T11:57:49;14.25;;;5.00;;
21046;SDS011;10682;50.874;3.656;2023-05-27T12:00:17;19.20;;;4.53;;
21046;SDS011;10682;50.874;3.656;2023-05-27T12:02:44;17.48;;;4.97;;
21046;SDS011;10682;50.874;3.656;2023-05-27T12:05:11;19.67;;;5.70;;
21046;SDS011;10682;50.874;3.656;2023-05-27T12:07:58;17.67;;;5.30;;
21046;SDS011;10682;50.874;3.656;2023-05-27T12:10:25;17.58;;;4.93;;
21046;SDS011;10682;50.874;3.656;2023-05-27T12:12:51;16.05;;;4.57;;
21046;SDS011;10682;50.874;3.656;2023-05-27T12:15:18;17.77;;;4.80;;
21046;SDS011;10682;50.874;3.656;2023-05-27T12:17:46;19.85;;;5.20;;
21046;SDS011;10682;50.874;3.656;2023-05-27T12:20:13;20.77;;;4.70;;
21046;SDS011;10682;50.874;3.656;2023-05-27T12:22:40;18.08;;;4.95;;
21046;SDS011;10682;50.874;3.656;2023-05-27T12:25:07;16.48;;;4.55;;
21046;SDS011;10682;50.874;3.656;2023-05-27T12:27:35;15.75;;;4.50;;
21046;SDS011;10682;50.874;3.656;2023-05-27T12:30:02;16.10;;;4.82;;
21046;SDS011;10682;50.874;3.656;2023-05-27T12:32:29;16.20;;;4.68;;
21046;SDS011;10682;50.874;3.656;2023-05-27T12:34:56;17.25;;;4.63;;
21046;SDS011;10682;50.874;3.656;2023-05-27T12:37:23;15.07;;;4.55;;
21046;SDS011;10682;50.874;3.656;2023-05-27T12:39:51;17.67;;;5.30;;
21046;SDS011;10682;50.874;3.656;2023-05-27T12:42:18;15.95;;;4.47;;
21046;SDS011;10682;50.874;3.656;2023-05-27T12:44:45;16.48;;;4.85;;
21046;SDS011;10682;50.874;3.656;2023-05-27T12:47:12;14.32;;;4.35;;
21046;SDS011;10682;50.874;3.656;2023-05-27T12:49:40;16.42;;;4.85;;
21046;SDS011;10682;50.874;3.656;2023-05-27T12:52:08;15.15;;;4.35;;
21046;SDS011;10682;50.874;3.656;2023-05-27T12:54:35;15.32;;;4.57;;
21046;SDS011;10682;50.874;3.656;2023-05-27T12:57:02;48.95;;;6.50;;
21046;SDS011;10682;50.874;3.656;2023-05-27T12:59:33;21.58;;;5.03;;
21046;SDS011;10682;50.874;3.656;2023-05-27T13:02:00;15.88;;;4.35;;
21046;SDS011;10682;50.874;3.656;2023-05-27T13:04:27;16.33;;;4.57;;
21046;SDS011;10682;50.874;3.656;2023-05-27T13:06:54;19.45;;;4.72;;
21046;SDS011;10682;50.874;3.656;2023-05-27T13:09:21;18.08;;;5.15;;
21046;SDS011;10682;50.874;3.656;2023-05-27T13:11:48;23.67;;;5.20;;
21046;SDS011;10682;50.874;3.656;2023-05-27T13:14:15;17.42;;;4.95;;
21046;SDS011;10682;50.874;3.656;2023-05-27T13:16:42;16.52;;;4.97;;
21046;SDS011;10682;50.874;3.656;2023-05-27T13:19:09;18.80;;;4.68;;
21046;SDS011;10682;50.874;3.656;2023-05-27T13:21:36;17.60;;;4.30;;
21046;SDS011;10682;50.874;3.656;2023-05-27T13:24:03;18.85;;;4.22;;
21046;SDS011;10682;50.874;3.656;2023-05-27T13:26:31;16.17;;;4.32;;
21046;SDS011;10682;50.874;3.656;2023-05-27T13:28:59;15.10;;;4.55;;
21046;SDS011;10682;50.874;3.656;2023-05-27T13:31:26;15.70;;;4.40;;
21046;SDS011;10682;50.874;3.656;2023-05-27T13:33:53;12.60;;;4.30;;
21046;SDS011;10682;50.874;3.656;2023-05-27T13:36:20;14.55;;;4.47;;
21046;SDS011;10682;50.874;3.656;2023-05-27T13:38:48;11.75;;;4.47;;
21046;SDS011;10682;50.874;3.656;2023-05-27T13:41:15;16.30;;;4.35;;
21046;SDS011;10682;50.874;3.656;2023-05-27T13:43:42;13.45;;;4.60;;
21046;SDS011;10682;50.874;3.656;2023-05-27T13:46:09;17.05;;;4.93;;
21046;SDS011;10682;50.874;3.656;2023-05-27T13:48:36;15.57;;;4.20;;
21046;SDS011;10682;50.874;3.656;2023-05-27T13:51:03;16.85;;;4.30;;
21046;SDS011;10682;50.874;3.656;2023-05-27T13:53:31;11.85;;;4.18;;
21046;SDS011;10682;50.874;3.656;2023-05-27T13:55:58;14.75;;;4.68;;
21046;SDS011;10682;50.874;3.656;2023-05-27T13:58:25;17.83;;;5.05;;
21046;SDS011;10682;50.874;3.656;2023-05-27T14:00:54;15.45;;;3.90;;
21046;SDS011;10682;50.874;3.656;2023-05-27T14:03:21;16.58;;;4.55;;
21046;SDS011;10682;50.874;3.656;2023-05-27T14:05:49;12.60;;;3.78;;
21046;SDS011;10682;50.874;3.656;2023-05-27T14:08:17;13.45;;;4.22;;
21046;SDS011;10682;50.874;3.656;2023-05-27T14:10:44;16.60;;;5.00;;
21046;SDS011;10682;50.874;3.656;2023-05-27T14:13:11;18.23;;;4.57;;
21046;SDS011;10682;50.874;3.656;2023-05-27T14:15:38;16.13;;;4.10;;
21046;SDS011;10682;50.874;3.656;2023-05-27T14:18:05;15.40;;;4.38;;
21046;SDS011;10682;50.874;3.656;2023-05-27T14:20:33;19.08;;;4.65;;
21046;SDS011;10682;50.874;3.656;2023-05-27T14:23:01;15.70;;;4.40;;
21046;SDS011;10682;50.874;3.656;2023-05-27T14:25:30;14.85;;;4.38;;
21046;SDS011;10682;50.874;3.656;2023-05-27T14:27:57;15.27;;;4.40;;
21046;SDS011;10682;50.874;3.656;2023-05-27T14:30:29;14.52;;;4.22;;
21046;SDS011;10682;50.874;3.656;2023-05-27T14:32:57;18.83;;;4.63;;
21046;SDS011;10682;50.874;3.656;2023-05-27T14:35:28;20.40;;;4.38;;
21046;SDS011;10682;50.874;3.656;2023-05-27T14:37:55;16.33;;;4.43;;
21046;SDS011;10682;50.874;3.656;2023-05-27T14:40:22;19.73;;;4.63;;
21046;SDS011;10682;50.874;3.656;2023-05-27T14:42:49;15.07;;;3.65;;
21046;SDS011;10682;50.874;3.656;2023-05-27T14:45:16;15.52;;;4.22;;
21046;SDS011;10682;50.874;3.656;2023-05-27T14:47:45;14.75;;;4.03;;
21046;SDS011;10682;50.874;3.656;2023-05-27T14:50:12;18.90;;;4.72;;
21046;SDS011;10682;50.874;3.656;2023-05-27T14:52:39;12.50;;;3.55;;